sensor_id;sensor_type;location;lat;lon;timestamp;P1;durP1;ratioP1;P2;durP2;ratioP2
34926;SDS011;21132;48.308;14.274;2023-05-02T00:00:15;8.52;;;5.45;;
34926;SDS011;21132;48.308;14.274;2023-05-02T00:02:40;6.03;;;5.40;;
34926;SDS011;21132;48.308;14.274;2023-05-02T00:05:06;7.47;;;5.97;;
34926;SDS011;21132;48.308;14.274;2023-05-02T00:07:32;6.15;;;4.95;;
34926;SDS011;21132;48.308;14.274;2023-05-02T00:09:58;7.35;;;5.80;;
34926;SDS011;21132;48.308;14.274;2023-05-02T00:12:26;7.28;;;5.20;;
34926;SDS011;21132;48.308;14.274;2023-05-02T00:14:52;7.78;;;6.35;;
34926;SDS011;21132;48.308;14.274;2023-05-02T00:17:18;7.25;;;6.05;;
34926;SDS011;21132;48.308;14.274;2023-05-02T00:19:44;6.32;;;5.70;;
34926;SDS011;21132;48.308;14.274;2023-05-02T00:22:11;6.75;;;5.60;;
34926;SDS011;21132;48.308;14.274;2023-05-02T00:24:37;9.10;;;6.78;;
34926;SDS011;21132;48.308;14.274;2023-05-02T00:27:03;7.60;;;5.63;;
34926;SDS011;21132;48.308;14.274;2023-05-02T00:29:29;6.93;;;5.50;;
34926;SDS011;21132;48.308;14.274;2023-05-02T00:31:55;12.43;;;5.97;;
34926;SDS011;21132;48.308;14.274;2023-05-02T00:34:22;6.28;;;5.07;;
34926;SDS011;21132;48.308;14.274;2023-05-02T00:36:57;7.18;;;5.03;;
34926;SDS011;21132;48.308;14.274;2023-05-02T00:39:23;6.78;;;5.45;;
34926;SDS011;21132;48.308;14.274;2023-05-02T00:41:49;8.45;;;6.20;;
34926;SDS011;21132;48.308;14.274;2023-05-02T00:44:21;10.48;;;6.85;;
34926;SDS011;21132;48.308;14.274;2023-05-02T00:46:47;9.63;;;7.82;;
34926;SDS011;21132;48.308;14.274;2023-05-02T00:49:12;10.20;;;8.55;;
34926;SDS011;21132;48.308;14.274;2023-05-02T00:51:39;7.88;;;6.68;;
34926;SDS011;21132;48.308;14.274;2023-05-02T00:54:04;8.50;;;6.53;;
34926;SDS011;21132;48.308;14.274;2023-05-02T00:56:31;7.55;;;6.30;;
34926;SDS011;21132;48.308;14.274;2023-05-02T00:58:56;8.48;;;5.97;;
34926;SDS011;21132;48.308;14.274;2023-05-02T01:12:47;12.80;;;7.60;;
34926;SDS011;21132;48.308;14.274;2023-05-02T01:15:18;8.48;;;7.22;;
34926;SDS011;21132;48.308;14.274;2023-05-02T01:17:46;7.72;;;6.78;;
34926;SDS011;21132;48.308;14.274;2023-05-02T01:20:16;7.90;;;7.10;;
34926;SDS011;21132;48.308;14.274;2023-05-02T01:22:45;10.00;;;6.93;;
34926;SDS011;21132;48.308;14.274;2023-05-02T01:25:19;10.00;;;8.00;;
34926;SDS011;21132;48.308;14.274;2023-05-02T01:30:37;10.88;;;8.73;;
34926;SDS011;21132;48.308;14.274;2023-05-02T01:33:05;11.18;;;8.45;;
34926;SDS011;21132;48.308;14.274;2023-05-02T01:35:35;9.32;;;7.68;;
34926;SDS011;21132;48.308;14.274;2023-05-02T01:38:02;10.65;;;8.45;;
34926;SDS011;21132;48.308;14.274;2023-05-02T01:40:30;11.25;;;8.43;;
34926;SDS011;21132;48.308;14.274;2023-05-02T01:42:58;11.32;;;7.82;;
34926;SDS011;21132;48.308;14.274;2023-05-02T01:45:28;9.70;;;7.20;;
34926;SDS011;21132;48.308;14.274;2023-05-02T01:47:55;9.57;;;7.38;;
34926;SDS011;21132;48.308;14.274;2023-05-02T01:50:23;9.27;;;7.47;;
34926;SDS011;21132;48.308;14.274;2023-05-02T01:52:51;9.57;;;8.10;;
34926;SDS011;21132;48.308;14.274;2023-05-02T01:55:18;9.52;;;7.63;;
34926;SDS011;21132;48.308;14.274;2023-05-02T01:57:46;8.73;;;7.75;;
34926;SDS011;21132;48.308;14.274;2023-05-02T02:00:15;11.23;;;8.02;;
34926;SDS011;21132;48.308;14.274;2023-05-02T02:02:42;12.93;;;8.15;;
34926;SDS011;21132;48.308;14.274;2023-05-02T02:05:09;13.05;;;7.82;;
34926;SDS011;21132;48.308;14.274;2023-05-02T02:07:36;12.43;;;7.60;;
34926;SDS011;21132;48.308;14.274;2023-05-02T02:10:03;11.00;;;8.13;;
34926;SDS011;21132;48.308;14.274;2023-05-02T02:12:37;11.13;;;7.82;;
34926;SDS011;21132;48.308;14.274;2023-05-02T02:15:48;10.10;;;7.72;;
34926;SDS011;21132;48.308;14.274;2023-05-02T02:18:06;10.10;;;7.82;;
34926;SDS011;21132;48.308;14.274;2023-05-02T02:20:35;12.48;;;9.68;;
34926;SDS011;21132;48.308;14.274;2023-05-02T02:23:05;8.50;;;7.20;;
34926;SDS011;21132;48.308;14.274;2023-05-02T02:25:32;8.95;;;6.90;;
34926;SDS011;21132;48.308;14.274;2023-05-02T02:28:00;10.63;;;8.05;;
34926;SDS011;21132;48.308;14.274;2023-05-02T02:30:26;8.10;;;6.68;;
34926;SDS011;21132;48.308;14.274;2023-05-02T02:32:51;8.57;;;7.15;;
34926;SDS011;21132;48.308;14.274;2023-05-02T02:35:17;8.82;;;7.35;;
34926;SDS011;21132;48.308;14.274;2023-05-02T02:37:47;8.73;;;6.80;;
34926;SDS011;21132;48.308;14.274;2023-05-02T02:40:36;8.13;;;6.90;;
34926;SDS011;21132;48.308;14.274;2023-05-02T02:46:13;9.75;;;7.35;;
34926;SDS011;21132;48.308;14.274;2023-05-02T02:51:12;9.27;;;6.63;;
34926;SDS011;21132;48.308;14.274;2023-05-02T02:53:52;7.38;;;6.28;;
34926;SDS011;21132;48.308;14.274;2023-05-02T02:56:38;8.70;;;5.00;;
34926;SDS011;21132;48.308;14.274;2023-05-02T02:59:18;8.68;;;6.78;;
34926;SDS011;21132;48.308;14.274;2023-05-02T03:02:06;5.13;;;4.63;;
34926;SDS011;21132;48.308;14.274;2023-05-02T03:04:34;5.30;;;4.20;;
34926;SDS011;21132;48.308;14.274;2023-05-02T03:07:03;4.32;;;3.88;;
34926;SDS011;21132;48.308;14.274;2023-05-02T03:09:49;3.92;;;3.63;;
34926;SDS011;21132;48.308;14.274;2023-05-02T03:12:15;3.83;;;3.42;;
34926;SDS011;21132;48.308;14.274;2023-05-02T03:14:40;4.18;;;3.00;;
34926;SDS011;21132;48.308;14.274;2023-05-02T03:17:07;3.78;;;3.03;;
34926;SDS011;21132;48.308;14.274;2023-05-02T03:19:33;3.83;;;2.55;;
34926;SDS011;21132;48.308;14.274;2023-05-02T03:21:59;2.30;;;2.10;;
34926;SDS011;21132;48.308;14.274;2023-05-02T03:24:25;3.92;;;3.08;;
34926;SDS011;21132;48.308;14.274;2023-05-02T03:26:54;2.97;;;2.67;;
34926;SDS011;21132;48.308;14.274;2023-05-02T03:29:20;2.58;;;2.38;;
34926;SDS011;21132;48.308;14.274;2023-05-02T03:31:47;3.60;;;2.25;;
34926;SDS011;21132;48.308;14.274;2023-05-02T03:34:13;2.67;;;2.47;;
34926;SDS011;21132;48.308;14.274;2023-05-02T03:36:38;3.08;;;2.78;;
34926;SDS011;21132;48.308;14.274;2023-05-02T03:39:04;3.25;;;2.75;;
34926;SDS011;21132;48.308;14.274;2023-05-02T03:41:30;2.92;;;2.40;;
34926;SDS011;21132;48.308;14.274;2023-05-02T03:43:57;3.55;;;2.72;;
34926;SDS011;21132;48.308;14.274;2023-05-02T03:46:22;2.45;;;2.20;;
34926;SDS011;21132;48.308;14.274;2023-05-02T03:48:49;3.50;;;2.83;;
34926;SDS011;21132;48.308;14.274;2023-05-02T03:51:15;2.85;;;2.55;;
34926;SDS011;21132;48.308;14.274;2023-05-02T03:53:41;2.83;;;2.50;;
34926;SDS011;21132;48.308;14.274;2023-05-02T03:56:07;4.07;;;2.80;;
34926;SDS011;21132;48.308;14.274;2023-05-02T03:58:33;3.45;;;3.00;;
34926;SDS011;21132;48.308;14.274;2023-05-02T04:01:02;4.00;;;3.42;;
34926;SDS011;21132;48.308;14.274;2023-05-02T04:03:28;3.38;;;2.90;;
34926;SDS011;21132;48.308;14.274;2023-05-02T04:05:54;3.92;;;2.85;;
34926;SDS011;21132;48.308;14.274;2023-05-02T04:08:19;3.65;;;2.83;;
34926;SDS011;21132;48.308;14.274;2023-05-02T04:10:46;5.03;;;3.45;;
34926;SDS011;21132;48.308;14.274;2023-05-02T04:13:11;2.92;;;2.63;;
34926;SDS011;21132;48.308;14.274;2023-05-02T04:15:37;3.63;;;2.70;;
34926;SDS011;21132;48.308;14.274;2023-05-02T04:18:03;5.97;;;2.67;;
34926;SDS011;21132;48.308;14.274;2023-05-02T04:20:29;3.30;;;2.30;;
34926;SDS011;21132;48.308;14.274;2023-05-02T04:22:55;3.15;;;2.60;;
34926;SDS011;21132;48.308;14.274;2023-05-02T04:25:21;6.78;;;2.88;;
34926;SDS011;21132;48.308;14.274;2023-05-02T04:27:46;3.15;;;2.67;;
34926;SDS011;21132;48.308;14.274;2023-05-02T04:30:12;5.18;;;3.13;;
34926;SDS011;21132;48.308;14.274;2023-05-02T04:32:38;3.67;;;2.85;;
34926;SDS011;21132;48.308;14.274;2023-05-02T04:35:04;3.38;;;3.00;;
34926;SDS011;21132;48.308;14.274;2023-05-02T04:37:30;3.28;;;2.80;;
34926;SDS011;21132;48.308;14.274;2023-05-02T04:39:56;3.72;;;3.20;;
34926;SDS011;21132;48.308;14.274;2023-05-02T04:42:22;4.05;;;2.70;;
34926;SDS011;21132;48.308;14.274;2023-05-02T04:44:49;4.75;;;3.35;;
34926;SDS011;21132;48.308;14.274;2023-05-02T04:47:14;3.28;;;2.97;;
34926;SDS011;21132;48.308;14.274;2023-05-02T04:49:41;4.88;;;3.58;;
34926;SDS011;21132;48.308;14.274;2023-05-02T04:52:08;3.97;;;3.47;;
34926;SDS011;21132;48.308;14.274;2023-05-02T04:54:34;5.32;;;3.38;;
34926;SDS011;21132;48.308;14.274;2023-05-02T04:57:00;4.20;;;3.45;;
34926;SDS011;21132;48.308;14.274;2023-05-02T04:59:30;3.80;;;3.35;;
34926;SDS011;21132;48.308;14.274;2023-05-02T05:01:56;8.25;;;3.83;;
34926;SDS011;21132;48.308;14.274;2023-05-02T05:04:22;4.18;;;3.78;;
34926;SDS011;21132;48.308;14.274;2023-05-02T05:06:48;4.70;;;3.35;;
34926;SDS011;21132;48.308;14.274;2023-05-02T05:09:14;3.95;;;3.40;;
34926;SDS011;21132;48.308;14.274;2023-05-02T05:11:40;3.30;;;3.00;;
34926;SDS011;21132;48.308;14.274;2023-05-02T05:14:10;4.00;;;3.60;;
34926;SDS011;21132;48.308;14.274;2023-05-02T05:16:36;4.28;;;3.55;;
34926;SDS011;21132;48.308;14.274;2023-05-02T05:19:02;4.30;;;3.25;;
34926;SDS011;21132;48.308;14.274;2023-05-02T05:21:29;4.95;;;4.03;;
34926;SDS011;21132;48.308;14.274;2023-05-02T05:23:55;4.38;;;3.55;;
34926;SDS011;21132;48.308;14.274;2023-05-02T05:26:20;4.68;;;3.90;;
34926;SDS011;21132;48.308;14.274;2023-05-02T05:28:47;4.53;;;3.88;;
34926;SDS011;21132;48.308;14.274;2023-05-02T05:31:14;4.30;;;3.65;;
34926;SDS011;21132;48.308;14.274;2023-05-02T05:33:41;4.32;;;3.40;;
34926;SDS011;21132;48.308;14.274;2023-05-02T05:36:08;5.57;;;3.58;;
34926;SDS011;21132;48.308;14.274;2023-05-02T05:38:39;7.80;;;4.00;;
34926;SDS011;21132;48.308;14.274;2023-05-02T05:41:05;4.78;;;3.75;;
34926;SDS011;21132;48.308;14.274;2023-05-02T05:43:32;6.47;;;4.68;;
34926;SDS011;21132;48.308;14.274;2023-05-02T05:45:58;4.65;;;3.78;;
34926;SDS011;21132;48.308;14.274;2023-05-02T05:48:24;5.93;;;4.32;;
34926;SDS011;21132;48.308;14.274;2023-05-02T05:50:50;6.60;;;4.88;;
34926;SDS011;21132;48.308;14.274;2023-05-02T05:53:16;5.40;;;4.80;;
34926;SDS011;21132;48.308;14.274;2023-05-02T05:55:43;8.57;;;3.88;;
34926;SDS011;21132;48.308;14.274;2023-05-02T05:58:10;5.78;;;4.00;;
34926;SDS011;21132;48.308;14.274;2023-05-02T06:00:36;5.28;;;4.55;;
34926;SDS011;21132;48.308;14.274;2023-05-02T06:03:03;5.32;;;4.60;;
34926;SDS011;21132;48.308;14.274;2023-05-02T06:05:29;4.85;;;4.20;;
34926;SDS011;21132;48.308;14.274;2023-05-02T06:07:55;5.70;;;4.60;;
34926;SDS011;21132;48.308;14.274;2023-05-02T06:10:22;5.68;;;4.53;;
34926;SDS011;21132;48.308;14.274;2023-05-02T06:12:48;5.80;;;4.75;;
34926;SDS011;21132;48.308;14.274;2023-05-02T06:15:14;6.13;;;4.68;;
34926;SDS011;21132;48.308;14.274;2023-05-02T06:17:40;6.80;;;4.80;;
34926;SDS011;21132;48.308;14.274;2023-05-02T06:20:07;8.32;;;4.68;;
34926;SDS011;21132;48.308;14.274;2023-05-02T06:22:33;5.50;;;4.60;;
34926;SDS011;21132;48.308;14.274;2023-05-02T06:24:59;8.05;;;6.35;;
34926;SDS011;21132;48.308;14.274;2023-05-02T06:27:26;6.88;;;5.00;;
34926;SDS011;21132;48.308;14.274;2023-05-02T06:29:52;5.93;;;5.18;;
34926;SDS011;21132;48.308;14.274;2023-05-02T06:32:18;6.38;;;5.53;;
34926;SDS011;21132;48.308;14.274;2023-05-02T06:34:45;5.78;;;4.50;;
34926;SDS011;21132;48.308;14.274;2023-05-02T06:37:11;7.05;;;6.03;;
34926;SDS011;21132;48.308;14.274;2023-05-02T06:39:37;10.23;;;6.85;;
34926;SDS011;21132;48.308;14.274;2023-05-02T06:42:02;8.25;;;5.78;;
34926;SDS011;21132;48.308;14.274;2023-05-02T06:44:28;8.20;;;6.03;;
34926;SDS011;21132;48.308;14.274;2023-05-02T06:46:54;8.30;;;6.80;;
34926;SDS011;21132;48.308;14.274;2023-05-02T06:49:20;7.35;;;6.55;;
34926;SDS011;21132;48.308;14.274;2023-05-02T06:51:46;7.53;;;6.28;;
34926;SDS011;21132;48.308;14.274;2023-05-02T06:54:12;11.32;;;7.38;;
34926;SDS011;21132;48.308;14.274;2023-05-02T06:56:39;7.43;;;6.47;;
34926;SDS011;21132;48.308;14.274;2023-05-02T06:59:06;7.80;;;5.70;;
34926;SDS011;21132;48.308;14.274;2023-05-02T07:01:32;9.77;;;7.20;;
34926;SDS011;21132;48.308;14.274;2023-05-02T07:03:58;7.57;;;6.38;;
34926;SDS011;21132;48.308;14.274;2023-05-02T07:06:25;9.13;;;6.63;;
34926;SDS011;21132;48.308;14.274;2023-05-02T07:08:51;8.48;;;6.07;;
34926;SDS011;21132;48.308;14.274;2023-05-02T07:11:17;7.20;;;5.82;;
34926;SDS011;21132;48.308;14.274;2023-05-02T07:13:43;7.85;;;7.05;;
34926;SDS011;21132;48.308;14.274;2023-05-02T07:16:10;8.57;;;6.63;;
34926;SDS011;21132;48.308;14.274;2023-05-02T07:18:35;7.03;;;5.65;;
34926;SDS011;21132;48.308;14.274;2023-05-02T07:21:01;10.52;;;7.55;;
34926;SDS011;21132;48.308;14.274;2023-05-02T07:23:27;10.07;;;7.45;;
34926;SDS011;21132;48.308;14.274;2023-05-02T07:25:53;12.45;;;7.55;;
34926;SDS011;21132;48.308;14.274;2023-05-02T07:28:19;12.50;;;8.32;;
34926;SDS011;21132;48.308;14.274;2023-05-02T07:30:45;9.55;;;7.78;;
34926;SDS011;21132;48.308;14.274;2023-05-02T07:33:11;13.55;;;8.38;;
34926;SDS011;21132;48.308;14.274;2023-05-02T07:35:36;10.32;;;8.00;;
34926;SDS011;21132;48.308;14.274;2023-05-02T07:38:02;17.67;;;9.25;;
34926;SDS011;21132;48.308;14.274;2023-05-02T07:40:28;10.45;;;8.05;;
34926;SDS011;21132;48.308;14.274;2023-05-02T07:42:54;13.18;;;9.10;;
34926;SDS011;21132;48.308;14.274;2023-05-02T07:45:20;10.00;;;7.32;;
34926;SDS011;21132;48.308;14.274;2023-05-02T07:47:45;16.83;;;9.02;;
34926;SDS011;21132;48.308;14.274;2023-05-02T07:50:11;13.13;;;7.45;;
34926;SDS011;21132;48.308;14.274;2023-05-02T07:52:37;11.82;;;7.57;;
34926;SDS011;21132;48.308;14.274;2023-05-02T07:55:03;10.98;;;7.65;;
34926;SDS011;21132;48.308;14.274;2023-05-02T07:57:29;7.57;;;6.43;;
34926;SDS011;21132;48.308;14.274;2023-05-02T07:59:55;12.35;;;8.40;;
34926;SDS011;21132;48.308;14.274;2023-05-02T08:02:21;11.73;;;8.65;;
34926;SDS011;21132;48.308;14.274;2023-05-02T08:04:48;10.05;;;7.57;;
34926;SDS011;21132;48.308;14.274;2023-05-02T08:07:14;9.73;;;7.38;;
34926;SDS011;21132;48.308;14.274;2023-05-02T08:09:40;11.93;;;7.72;;
34926;SDS011;21132;48.308;14.274;2023-05-02T08:12:05;12.27;;;8.63;;
34926;SDS011;21132;48.308;14.274;2023-05-02T08:14:31;9.48;;;7.15;;
34926;SDS011;21132;48.308;14.274;2023-05-02T08:16:58;11.32;;;8.50;;
34926;SDS011;21132;48.308;14.274;2023-05-02T08:19:25;11.43;;;7.57;;
34926;SDS011;21132;48.308;14.274;2023-05-02T08:21:54;10.68;;;8.10;;
34926;SDS011;21132;48.308;14.274;2023-05-02T08:24:20;10.85;;;7.60;;
34926;SDS011;21132;48.308;14.274;2023-05-02T08:26:49;13.75;;;7.80;;
34926;SDS011;21132;48.308;14.274;2023-05-02T08:29:15;11.15;;;8.02;;
34926;SDS011;21132;48.308;14.274;2023-05-02T08:31:41;11.50;;;7.25;;
34926;SDS011;21132;48.308;14.274;2023-05-02T08:34:06;8.35;;;6.88;;
34926;SDS011;21132;48.308;14.274;2023-05-02T08:36:32;13.70;;;7.85;;
34926;SDS011;21132;48.308;14.274;2023-05-02T08:38:58;10.70;;;8.68;;
34926;SDS011;21132;48.308;14.274;2023-05-02T08:41:24;10.50;;;8.05;;
34926;SDS011;21132;48.308;14.274;2023-05-02T08:43:53;11.05;;;7.75;;
34926;SDS011;21132;48.308;14.274;2023-05-02T08:46:21;13.60;;;8.65;;
34926;SDS011;21132;48.308;14.274;2023-05-02T08:48:48;13.43;;;8.77;;
34926;SDS011;21132;48.308;14.274;2023-05-02T08:51:15;10.57;;;8.05;;
34926;SDS011;21132;48.308;14.274;2023-05-02T08:53:42;10.38;;;7.68;;
34926;SDS011;21132;48.308;14.274;2023-05-02T08:56:09;8.43;;;6.95;;
34926;SDS011;21132;48.308;14.274;2023-05-02T08:58:37;10.13;;;7.47;;
34926;SDS011;21132;48.308;14.274;2023-05-02T09:01:13;11.07;;;8.45;;
34926;SDS011;21132;48.308;14.274;2023-05-02T09:03:41;8.88;;;7.18;;
34926;SDS011;21132;48.308;14.274;2023-05-02T09:06:15;12.18;;;7.18;;
34926;SDS011;21132;48.308;14.274;2023-05-02T09:08:43;9.98;;;7.32;;
34926;SDS011;21132;48.308;14.274;2023-05-02T09:11:10;14.02;;;7.43;;
34926;SDS011;21132;48.308;14.274;2023-05-02T09:13:49;14.35;;;8.10;;
34926;SDS011;21132;48.308;14.274;2023-05-02T09:16:24;11.27;;;8.18;;
34926;SDS011;21132;48.308;14.274;2023-05-02T09:18:52;10.88;;;7.05;;
34926;SDS011;21132;48.308;14.274;2023-05-02T09:21:20;7.13;;;6.03;;
34926;SDS011;21132;48.308;14.274;2023-05-02T09:23:53;17.88;;;7.13;;
34926;SDS011;21132;48.308;14.274;2023-05-02T09:26:20;9.43;;;7.53;;
34926;SDS011;21132;48.308;14.274;2023-05-02T09:28:51;11.25;;;7.47;;
34926;SDS011;21132;48.308;14.274;2023-05-02T09:31:24;11.23;;;8.57;;
34926;SDS011;21132;48.308;14.274;2023-05-02T09:34:09;10.18;;;7.53;;
34926;SDS011;21132;48.308;14.274;2023-05-02T09:39:21;10.45;;;7.63;;
34926;SDS011;21132;48.308;14.274;2023-05-02T09:41:53;10.73;;;7.80;;
34926;SDS011;21132;48.308;14.274;2023-05-02T09:44:20;11.32;;;7.85;;
34926;SDS011;21132;48.308;14.274;2023-05-02T09:46:49;21.42;;;7.50;;
34926;SDS011;21132;48.308;14.274;2023-05-02T09:49:16;9.98;;;7.65;;
34926;SDS011;21132;48.308;14.274;2023-05-02T09:51:43;12.40;;;7.93;;
34926;SDS011;21132;48.308;14.274;2023-05-02T09:54:10;11.18;;;6.43;;
34926;SDS011;21132;48.308;14.274;2023-05-02T09:56:51;8.80;;;7.15;;
34926;SDS011;21132;48.308;14.274;2023-05-02T09:59:21;7.50;;;6.05;;
34926;SDS011;21132;48.308;14.274;2023-05-02T10:01:57;10.95;;;7.00;;
34926;SDS011;21132;48.308;14.274;2023-05-02T10:04:25;10.23;;;7.80;;
34926;SDS011;21132;48.308;14.274;2023-05-02T10:06:52;9.63;;;6.82;;
34926;SDS011;21132;48.308;14.274;2023-05-02T10:09:19;9.25;;;6.75;;
34926;SDS011;21132;48.308;14.274;2023-05-02T10:11:46;12.50;;;6.85;;
34926;SDS011;21132;48.308;14.274;2023-05-02T10:14:18;10.90;;;7.15;;
34926;SDS011;21132;48.308;14.274;2023-05-02T10:16:54;9.88;;;6.68;;
34926;SDS011;21132;48.308;14.274;2023-05-02T10:19:32;7.40;;;6.57;;
34926;SDS011;21132;48.308;14.274;2023-05-02T10:22:06;9.57;;;6.88;;
34926;SDS011;21132;48.308;14.274;2023-05-02T10:24:33;8.75;;;6.07;;
34926;SDS011;21132;48.308;14.274;2023-05-02T10:27:00;6.97;;;5.85;;
34926;SDS011;21132;48.308;14.274;2023-05-02T10:29:28;7.95;;;6.22;;
34926;SDS011;21132;48.308;14.274;2023-05-02T10:31:56;8.70;;;6.90;;
34926;SDS011;21132;48.308;14.274;2023-05-02T10:34:23;10.70;;;7.50;;
34926;SDS011;21132;48.308;14.274;2023-05-02T10:36:49;9.75;;;7.18;;
34926;SDS011;21132;48.308;14.274;2023-05-02T10:39:15;11.77;;;8.15;;
34926;SDS011;21132;48.308;14.274;2023-05-02T10:41:41;9.13;;;7.47;;
34926;SDS011;21132;48.308;14.274;2023-05-02T10:44:07;7.88;;;6.38;;
34926;SDS011;21132;48.308;14.274;2023-05-02T10:46:34;11.07;;;7.43;;
34926;SDS011;21132;48.308;14.274;2023-05-02T10:49:07;6.72;;;6.03;;
34926;SDS011;21132;48.308;14.274;2023-05-02T10:51:36;9.13;;;7.72;;
34926;SDS011;21132;48.308;14.274;2023-05-02T10:54:19;10.55;;;6.60;;
34926;SDS011;21132;48.308;14.274;2023-05-02T10:59:41;6.85;;;6.07;;
34926;SDS011;21132;48.308;14.274;2023-05-02T11:07:33;6.72;;;5.75;;
34926;SDS011;21132;48.308;14.274;2023-05-02T11:12:56;7.95;;;6.32;;
34926;SDS011;21132;48.308;14.274;2023-05-02T11:20:31;13.77;;;7.72;;
34926;SDS011;21132;48.308;14.274;2023-05-02T11:22:59;9.23;;;6.07;;
34926;SDS011;21132;48.308;14.274;2023-05-02T11:25:52;13.88;;;6.20;;
34926;SDS011;21132;48.308;14.274;2023-05-02T11:28:38;12.60;;;6.57;;
34926;SDS011;21132;48.308;14.274;2023-05-02T11:33:59;9.05;;;6.75;;
34926;SDS011;21132;48.308;14.274;2023-05-02T11:36:29;10.23;;;7.15;;
34926;SDS011;21132;48.308;14.274;2023-05-02T11:38:59;8.73;;;6.68;;
34926;SDS011;21132;48.308;14.274;2023-05-02T11:41:40;9.77;;;6.90;;
34926;SDS011;21132;48.308;14.274;2023-05-02T11:44:06;8.93;;;6.45;;
34926;SDS011;21132;48.308;14.274;2023-05-02T11:46:35;10.43;;;6.72;;
34926;SDS011;21132;48.308;14.274;2023-05-02T11:49:02;10.73;;;7.20;;
34926;SDS011;21132;48.308;14.274;2023-05-02T11:51:28;14.75;;;7.50;;
34926;SDS011;21132;48.308;14.274;2023-05-02T11:53:55;6.78;;;6.07;;
34926;SDS011;21132;48.308;14.274;2023-05-02T11:56:25;7.75;;;6.13;;
34926;SDS011;21132;48.308;14.274;2023-05-02T11:58:57;9.10;;;6.40;;
34926;SDS011;21132;48.308;14.274;2023-05-02T12:01:24;9.70;;;7.10;;
34926;SDS011;21132;48.308;14.274;2023-05-02T12:04:00;9.45;;;5.70;;
34926;SDS011;21132;48.308;14.274;2023-05-02T12:06:30;7.43;;;5.88;;
34926;SDS011;21132;48.308;14.274;2023-05-02T12:09:12;7.30;;;5.68;;
34926;SDS011;21132;48.308;14.274;2023-05-02T12:11:41;7.10;;;5.63;;
34926;SDS011;21132;48.308;14.274;2023-05-02T12:14:07;8.32;;;5.93;;
34926;SDS011;21132;48.308;14.274;2023-05-02T12:16:33;8.02;;;5.93;;
34926;SDS011;21132;48.308;14.274;2023-05-02T12:18:59;6.95;;;5.63;;
34926;SDS011;21132;48.308;14.274;2023-05-02T12:21:28;9.05;;;5.93;;
34926;SDS011;21132;48.308;14.274;2023-05-02T12:23:57;8.73;;;7.07;;
34926;SDS011;21132;48.308;14.274;2023-05-02T12:26:25;9.95;;;5.90;;
34926;SDS011;21132;48.308;14.274;2023-05-02T12:28:55;7.40;;;6.38;;
34926;SDS011;21132;48.308;14.274;2023-05-02T12:31:26;9.35;;;6.78;;
34926;SDS011;21132;48.308;14.274;2023-05-02T12:33:55;8.07;;;6.35;;
34926;SDS011;21132;48.308;14.274;2023-05-02T12:36:25;10.70;;;8.07;;
34926;SDS011;21132;48.308;14.274;2023-05-02T12:38:54;16.60;;;8.55;;
34926;SDS011;21132;48.308;14.274;2023-05-02T12:41:33;10.07;;;7.38;;
34926;SDS011;21132;48.308;14.274;2023-05-02T12:44:01;9.25;;;6.10;;
34926;SDS011;21132;48.308;14.274;2023-05-02T12:46:27;9.05;;;6.30;;
34926;SDS011;21132;48.308;14.274;2023-05-02T12:49:03;8.38;;;7.22;;
34926;SDS011;21132;48.308;14.274;2023-05-02T12:51:37;13.85;;;9.35;;
34926;SDS011;21132;48.308;14.274;2023-05-02T12:54:03;10.45;;;7.72;;
34926;SDS011;21132;48.308;14.274;2023-05-02T12:56:30;10.70;;;7.82;;
34926;SDS011;21132;48.308;14.274;2023-05-02T12:59:03;12.10;;;8.35;;
34926;SDS011;21132;48.308;14.274;2023-05-02T13:01:30;12.30;;;6.93;;
34926;SDS011;21132;48.308;14.274;2023-05-02T13:03:57;14.73;;;7.78;;
34926;SDS011;21132;48.308;14.274;2023-05-02T13:06:23;12.77;;;8.43;;
34926;SDS011;21132;48.308;14.274;2023-05-02T13:08:49;11.77;;;8.48;;
34926;SDS011;21132;48.308;14.274;2023-05-02T13:11:15;14.50;;;7.97;;
34926;SDS011;21132;48.308;14.274;2023-05-02T13:13:42;13.02;;;9.02;;
34926;SDS011;21132;48.308;14.274;2023-05-02T13:16:07;17.25;;;9.77;;
34926;SDS011;21132;48.308;14.274;2023-05-02T13:18:33;14.43;;;8.63;;
34926;SDS011;21132;48.308;14.274;2023-05-02T13:20:59;11.57;;;7.43;;
34926;SDS011;21132;48.308;14.274;2023-05-02T13:23:25;12.75;;;7.88;;
34926;SDS011;21132;48.308;14.274;2023-05-02T13:25:51;10.75;;;7.75;;
34926;SDS011;21132;48.308;14.274;2023-05-02T13:28:17;10.55;;;7.45;;
34926;SDS011;21132;48.308;14.274;2023-05-02T13:30:43;10.80;;;7.68;;
34926;SDS011;21132;48.308;14.274;2023-05-02T13:33:09;13.80;;;7.97;;
34926;SDS011;21132;48.308;14.274;2023-05-02T13:35:34;23.70;;;10.18;;
34926;SDS011;21132;48.308;14.274;2023-05-02T13:38:01;14.25;;;8.05;;
34926;SDS011;21132;48.308;14.274;2023-05-02T13:40:27;14.13;;;9.60;;
34926;SDS011;21132;48.308;14.274;2023-05-02T13:42:53;12.88;;;7.75;;
34926;SDS011;21132;48.308;14.274;2023-05-02T13:45:19;12.43;;;8.40;;
34926;SDS011;21132;48.308;14.274;2023-05-02T13:47:45;17.08;;;11.65;;
34926;SDS011;21132;48.308;14.274;2023-05-02T13:50:10;15.18;;;9.73;;
34926;SDS011;21132;48.308;14.274;2023-05-02T13:52:36;11.32;;;8.27;;
34926;SDS011;21132;48.308;14.274;2023-05-02T13:55:02;14.55;;;9.43;;
34926;SDS011;21132;48.308;14.274;2023-05-02T13:57:28;9.15;;;7.88;;
34926;SDS011;21132;48.308;14.274;2023-05-02T13:59:54;9.93;;;7.65;;
34926;SDS011;21132;48.308;14.274;2023-05-02T14:02:20;14.38;;;8.95;;
34926;SDS011;21132;48.308;14.274;2023-05-02T14:04:46;12.25;;;9.20;;
34926;SDS011;21132;48.308;14.274;2023-05-02T14:07:12;14.98;;;8.25;;
34926;SDS011;21132;48.308;14.274;2023-05-02T14:09:38;11.50;;;8.38;;
34926;SDS011;21132;48.308;14.274;2023-05-02T14:12:04;12.13;;;8.30;;
34926;SDS011;21132;48.308;14.274;2023-05-02T14:14:30;12.00;;;8.93;;
34926;SDS011;21132;48.308;14.274;2023-05-02T14:16:56;12.10;;;8.10;;
34926;SDS011;21132;48.308;14.274;2023-05-02T14:19:22;8.63;;;7.70;;
34926;SDS011;21132;48.308;14.274;2023-05-02T14:21:47;14.52;;;7.05;;
34926;SDS011;21132;48.308;14.274;2023-05-02T14:24:13;10.07;;;8.00;;
34926;SDS011;21132;48.308;14.274;2023-05-02T14:26:40;9.07;;;6.72;;
34926;SDS011;21132;48.308;14.274;2023-05-02T14:29:06;10.00;;;7.22;;
34926;SDS011;21132;48.308;14.274;2023-05-02T14:31:32;11.20;;;7.40;;
34926;SDS011;21132;48.308;14.274;2023-05-02T14:33:58;11.98;;;8.48;;
34926;SDS011;21132;48.308;14.274;2023-05-02T14:36:24;10.90;;;6.80;;
34926;SDS011;21132;48.308;14.274;2023-05-02T14:38:51;13.55;;;8.70;;
34926;SDS011;21132;48.308;14.274;2023-05-02T14:41:16;11.70;;;8.40;;
34926;SDS011;21132;48.308;14.274;2023-05-02T14:43:43;11.35;;;8.10;;
34926;SDS011;21132;48.308;14.274;2023-05-02T14:46:09;13.48;;;9.15;;
34926;SDS011;21132;48.308;14.274;2023-05-02T14:48:34;10.50;;;8.40;;
34926;SDS011;21132;48.308;14.274;2023-05-02T14:51:04;12.98;;;7.20;;
34926;SDS011;21132;48.308;14.274;2023-05-02T14:53:30;11.45;;;6.75;;
34926;SDS011;21132;48.308;14.274;2023-05-02T14:55:56;12.52;;;7.75;;
34926;SDS011;21132;48.308;14.274;2023-05-02T14:58:22;8.93;;;7.22;;
34926;SDS011;21132;48.308;14.274;2023-05-02T15:00:48;11.30;;;8.45;;
34926;SDS011;21132;48.308;14.274;2023-05-02T15:03:13;27.52;;;14.02;;
34926;SDS011;21132;48.308;14.274;2023-05-02T15:05:39;18.40;;;10.68;;
34926;SDS011;21132;48.308;14.274;2023-05-02T15:08:05;17.77;;;10.05;;
34926;SDS011;21132;48.308;14.274;2023-05-02T15:10:35;18.30;;;8.63;;
34926;SDS011;21132;48.308;14.274;2023-05-02T15:13:03;10.77;;;8.70;;